Time;durP1;ratioP1;P1;durP2;ratioP2;P2;SDS_P1;SDS_P2;PMS_P1;PMS_P2;Temp;Humidity;BMP_temperature;BMP_pressure;BME280_temperature;BME280_humidity;BME280_pressure;Samples;Min_cycle;Max_cycle;Signal;HPM_P1;HPM_P2
2023/05/04 00:01:27;;;;;;;;;;;;;;;8.23;83.29;102283.69;10498742;28;19924;-63
2023/05/04 00:06:30;;;;;;;;;;;;;;;8.29;82.47;102277.50;10523121;28;20371;-62
2023/05/04 00:11:32;;;;;;;;;;;;;;;8.68;81.67;102267.81;10538512;28;20304;-63
2023/05/04 00:16:35;;;;;;;;;;;;;;;8.73;82.61;102267.72;10537764;28;19954;-63
2023/05/04 00:21:37;;;;;;;;;;;;;;;8.54;81.25;102257.75;10539494;28;20433;-63
2023/05/04 00:26:39;;;;;;;;;;;;;;;8.52;82.26;102264.75;10515041;28;20387;-63
2023/05/04 00:31:41;;;;;;;;;;;;;;;8.63;83.01;102247.97;10498120;28;19925;-63
2023/05/04 00:36:45;;;;;;;;;;;;;;;8.52;82.35;102238.66;10497715;28;19925;-64
2023/05/04 00:41:47;;;;;;;;;;;;;;;8.57;82.65;102235.06;10524088;28;20278;-63
2023/05/04 00:46:51;;;;;;;;;;;;;;;8.48;82.45;102236.16;10510849;28;20174;-63
2023/05/04 00:51:54;;;;;;;;;;;;;;;8.50;82.85;102231.75;10497110;28;19925;-63
2023/05/04 00:56:56;;;;;;;;;;;;;;;8.25;83.66;102218.44;10497562;28;19924;-63
2023/05/04 01:01:58;;;;;;;;;;;;;;;7.76;86.52;102216.09;10498476;28;20437;-63
2023/05/04 01:07:00;;;;;;;;;;;;;;;8.03;85.27;102212.88;10504573;28;19925;-63
2023/05/04 01:12:03;;;;;;;;;;;;;;;7.77;86.50;102201.31;10509281;28;19924;-63
2023/05/04 01:17:05;;;;;;;;;;;;;;;7.82;86.05;102196.88;10545870;28;19950;-63
2023/05/04 01:22:08;;;;;;;;;;;;;;;7.44;86.99;102209.84;10504502;28;20007;-63
2023/05/04 01:27:12;;;;;;;;;;;;;;;7.61;88.00;102201.66;10528249;28;19978;-63
2023/05/04 01:32:15;;;;;;;;;;;;;;;7.30;89.44;102204.09;10539081;28;20362;-63
2023/05/04 01:37:17;;;;;;;;;;;;;;;7.36;88.92;102203.09;10544862;28;20367;-63
2023/05/04 01:42:19;;;;;;;;;;;;;;;7.51;87.79;102200.16;10543050;28;20298;-63
2023/05/04 01:47:21;;;;;;;;;;;;;;;7.24;88.62;102201.59;10534872;28;19931;-63
2023/05/04 01:52:24;;;;;;;;;;;;;;;7.21;88.97;102212.09;10545075;28;19931;-63
2023/05/04 01:57:26;;;;;;;;;;;;;;;6.91;90.85;102211.84;10544160;28;20301;-63
2023/05/04 02:02:28;;;;;;;;;;;;;;;6.84;90.52;102207.59;10543150;28;19924;-62
2023/05/04 02:07:30;;;;;;;;;;;;;;;7.07;90.08;102205.41;10517866;28;19924;-62
2023/05/04 02:12:33;;;;;;;;;;;;;;;6.88;92.76;102197.09;10543607;28;19924;-63
2023/05/04 02:17:35;;;;;;;;;;;;;;;6.60;92.01;102191.56;10543937;28;19928;-62
2023/05/04 02:22:38;;;;;;;;;;;;;;;6.86;93.11;102198.03;10534067;28;19925;-63
2023/05/04 02:27:40;;;;;;;;;;;;;;;6.72;93.87;102193.06;10501795;28;19951;-63
2023/05/04 02:32:42;;;;;;;;;;;;;;;6.44;96.77;102191.00;10501517;28;19924;-63
2023/05/04 02:37:44;;;;;;;;;;;;;;;7.00;92.86;102193.41;10535179;28;19924;-63
2023/05/04 02:42:46;;;;;;;;;;;;;;;6.90;93.73;102191.03;10542366;28;20375;-63
2023/05/04 02:47:49;;;;;;;;;;;;;;;6.90;96.02;102191.03;10540551;28;19924;-63
2023/05/04 02:52:51;;;;;;;;;;;;;;;6.77;96.32;102185.19;10540830;28;20375;-63
2023/05/04 02:57:53;;;;;;;;;;;;;;;7.06;93.97;102177.66;10541730;28;19924;-63
2023/05/04 03:02:55;;;;;;;;;;;;;;;6.68;95.89;102181.03;10507085;28;19928;-63
2023/05/04 03:07:57;;;;;;;;;;;;;;;6.82;95.02;102184.19;10532748;28;19928;-63
2023/05/04 03:13:04;;;;;;;;;;;;;;;6.61;95.86;102179.44;10541386;28;19928;-63
2023/05/04 03:18:07;;;;;;;;;;;;;;;6.63;96.79;102172.44;10499150;28;20428;-63
2023/05/04 03:23:09;;;;;;;;;;;;;;;6.62;97.08;102174.19;10499680;28;19924;-64
2023/05/04 03:28:11;;;;;;;;;;;;;;;6.57;98.69;102163.00;10511331;28;19924;-64
2023/05/04 03:33:13;;;;;;;;;;;;;;;6.45;97.05;102158.88;10540773;28;19947;-63
2023/05/04 03:38:16;;;;;;;;;;;;;;;6.46;97.96;102152.78;10539118;28;19928;-63
2023/05/04 03:43:18;;;;;;;;;;;;;;;6.29;99.03;102152.25;10541034;28;19924;-63
2023/05/04 03:48:20;;;;;;;;;;;;;;;6.26;99.08;102160.94;10539226;28;19924;-63
2023/05/04 03:53:22;;;;;;;;;;;;;;;6.19;97.27;102148.09;10540079;28;20321;-63
2023/05/04 03:58:25;;;;;;;;;;;;;;;6.07;98.77;102143.94;10539398;28;19924;-63
2023/05/04 04:03:27;;;;;;;;;;;;;;;6.18;98.46;102146.38;10539363;28;19924;-63
2023/05/04 04:08:29;;;;;;;;;;;;;;;6.20;97.59;102140.25;10538711;28;19972;-63
2023/05/04 04:13:31;;;;;;;;;;;;;;;6.22;98.68;102137.63;10539173;28;19924;-63
2023/05/04 04:18:33;;;;;;;;;;;;;;;6.39;96.75;102140.78;10539769;28;19924;-64
2023/05/04 04:23:36;;;;;;;;;;;;;;;6.37;96.94;102137.38;10509384;28;19973;-64
2023/05/04 04:28:38;;;;;;;;;;;;;;;6.30;97.71;102127.94;10538355;28;19924;-63
2023/05/04 04:33:41;;;;;;;;;;;;;;;6.35;98.32;102118.31;10539351;28;20286;-63
2023/05/04 04:38:43;;;;;;;;;;;;;;;6.39;98.47;102132.09;10543234;28;19924;-64
2023/05/04 04:43:46;;;;;;;;;;;;;;;6.65;98.20;102131.63;10502784;28;19928;-64
2023/05/04 04:48:49;;;;;;;;;;;;;;;6.97;96.97;102125.75;10528540;28;19924;-63
2023/05/04 04:53:51;;;;;;;;;;;;;;;7.02;97.97;102116.09;10513140;28;19929;-64
2023/05/04 04:58:53;;;;;;;;;;;;;;;7.17;97.18;102107.09;10505210;28;19924;-64
2023/05/04 05:03:58;;;;;;;;;;;;;;;7.44;93.92;102107.38;10509907;28;20390;-64
2023/05/04 05:09:00;;;;;;;;;;;;;;;7.63;92.77;102113.88;10505813;28;19924;-64
2023/05/04 05:14:02;;;;;;;;;;;;;;;7.54;92.02;102121.03;10504166;28;19986;-64
2023/05/04 05:19:04;;;;;;;;;;;;;;;7.84;93.02;102129.03;10507573;28;19924;-64
2023/05/04 05:24:06;;;;;;;;;;;;;;;7.88;91.23;102122.84;10503539;28;19929;-64
2023/05/04 05:29:09;;;;;;;;;;;;;;;8.24;91.91;102120.16;10504361;28;19982;-64
2023/05/04 05:34:11;;;;;;;;;;;;;;;8.30;90.35;102114.78;10503428;28;20375;-64
2023/05/04 05:39:14;;;;;;;;;;;;;;;8.33;88.87;102115.56;10503787;28;19929;-64
2023/05/04 05:44:16;;;;;;;;;;;;;;;8.50;89.83;102111.69;10503975;28;19932;-63
2023/05/04 05:49:19;;;;;;;;;;;;;;;8.52;89.79;102110.75;10502380;28;19924;-64
2023/05/04 05:54:24;;;;;;;;;;;;;;;8.85;88.00;102100.22;10503198;28;19971;-64
2023/05/04 05:59:26;;;;;;;;;;;;;;;8.64;87.29;102104.31;10502309;28;19936;-63
2023/05/04 06:04:28;;;;;;;;;;;;;;;9.26;87.09;102095.53;10539885;28;20444;-64
2023/05/04 06:09:31;;;;;;;;;;;;;;;9.26;83.73;102094.66;10544493;28;20040;-64
2023/05/04 06:14:33;;;;;;;;;;;;;;;9.48;81.93;102089.59;10543566;28;19924;-64
2023/05/04 06:19:38;;;;;;;;;;;;;;;9.69;82.02;102093.28;10534959;28;19977;-64
2023/05/04 06:24:40;;;;;;;;;;;;;;;9.79;80.81;102086.00;10501380;28;20337;-64
2023/05/04 06:29:42;;;;;;;;;;;;;;;9.62;78.00;102076.09;10501195;28;19925;-64
2023/05/04 06:34:45;;;;;;;;;;;;;;;10.08;80.70;102071.91;10500908;28;19924;-64
2023/05/04 06:39:47;;;;;;;;;;;;;;;9.60;77.88;102070.91;10500451;28;19970;-63
2023/05/04 06:44:50;;;;;;;;;;;;;;;10.70;77.68;102062.69;10513131;28;20027;-63
2023/05/04 06:49:52;;;;;;;;;;;;;;;10.70;78.32;102057.47;10538288;28;19931;-63
2023/05/04 06:54:54;;;;;;;;;;;;;;;10.21;77.23;102069.72;10500064;28;19925;-68
2023/05/04 06:59:57;;;;;;;;;;;;;;;10.91;76.42;102052.31;10499672;28;19983;-64
2023/05/04 07:04:59;;;;;;;;;;;;;;;10.85;75.56;102047.31;10501913;28;19924;-66
2023/05/04 07:10:01;;;;;;;;;;;;;;;11.67;74.92;102051.00;10500187;28;19924;-66
2023/05/04 07:15:05;;;;;;;;;;;;;;;11.98;75.44;102041.84;10499913;28;19974;-67
2023/05/04 07:20:07;;;;;;;;;;;;;;;11.35;72.05;102041.84;10500071;28;20456;-69
2023/05/04 07:25:10;;;;;;;;;;;;;;;12.40;73.65;102038.22;10507422;28;19924;-66
2023/05/04 07:30:12;;;;;;;;;;;;;;;12.59;71.56;102037.38;10521716;28;19924;-64
2023/05/04 07:35:14;;;;;;;;;;;;;;;13.02;70.29;102028.31;10537116;28;19985;-66
2023/05/04 07:40:17;;;;;;;;;;;;;;;13.33;70.30;102019.00;10497992;28;19990;-68
2023/05/04 07:45:19;;;;;;;;;;;;;;;13.22;69.12;102017.78;10499588;28;19981;-67
2023/05/04 07:50:21;;;;;;;;;;;;;;;13.91;69.12;102014.31;10498882;28;19932;-67
2023/05/04 07:55:25;;;;;;;;;;;;;;;14.25;68.35;102009.91;10498279;28;19931;-70
2023/05/04 08:00:27;;;;;;;;;;;;;;;14.46;67.24;102007.91;10498135;28;19929;-64
2023/05/04 08:05:29;;;;;;;;;;;;;;;15.10;64.96;102002.63;10500216;28;19928;-72
2023/05/04 08:10:35;;;;;;;;;;;;;;;14.67;65.61;101997.97;10500643;28;19970;-66
2023/05/04 08:15:37;;;;;;;;;;;;;;;15.26;64.46;101992.88;10540554;28;19932;-66
2023/05/04 08:20:40;;;;;;;;;;;;;;;15.89;63.75;101990.97;10543982;28;20389;-66
2023/05/04 08:25:42;;;;;;;;;;;;;;;16.10;61.51;101983.50;10517486;28;19931;-66
2023/05/04 08:30:44;;;;;;;;;;;;;;;16.89;61.88;101975.00;10509284;28;19978;-66
2023/05/04 08:35:47;;;;;;;;;;;;;;;17.29;59.86;101966.19;10507987;28;19928;-66
2023/05/04 08:40:49;;;;;;;;;;;;;;;17.25;59.01;101970.00;10505436;28;19924;-66
2023/05/04 08:45:52;;;;;;;;;;;;;;;16.79;58.01;101965.06;10488155;28;20403;-66
2023/05/04 08:50:54;;;;;;;;;;;;;;;17.26;60.22;101961.97;10505386;28;19924;-66
2023/05/04 08:55:57;;;;;;;;;;;;;;;16.12;58.18;101958.72;10503673;28;20269;-66
2023/05/04 09:01:00;;;;;;;;;;;;;;;17.40;57.08;101952.22;10515068;28;19924;-66
2023/05/04 09:06:02;;;;;;;;;;;;;;;17.14;57.30;101944.25;10487189;28;19928;-66
2023/05/04 09:11:04;;;;;;;;;;;;;;;18.03;56.14;101945.25;10508489;28;20268;-66
2023/05/04 09:16:07;;;;;;;;;;;;;;;18.22;56.13;101947.41;10503706;28;20529;-66
2023/05/04 09:21:09;;;;;;;;;;;;;;;19.51;54.94;101933.53;10544892;28;19931;-67
2023/05/04 09:26:11;;;;;;;;;;;;;;;19.18;53.68;101924.50;10545414;28;19924;-67
2023/05/04 09:31:14;;;;;;;;;;;;;;;19.49;53.97;101923.84;10545513;28;19924;-67
2023/05/04 09:36:17;;;;;;;;;;;;;;;19.95;54.51;101914.09;10546088;28;19924;-67
2023/05/04 09:41:30;;;;;;;;;;;;;;;20.64;53.11;101901.53;10528194;28;19924;-67
2023/05/04 09:46:32;;;;;;;;;;;;;;;20.16;52.34;101898.25;10545987;28;20024;-66
2023/05/04 09:51:36;;;;;;;;;;;;;;;20.84;51.64;101889.22;10553299;22;19969;-67
2023/05/04 09:56:45;;;;;;;;;;;;;;;21.50;48.76;101889.81;10527853;28;19981;-67
2023/05/04 10:01:47;;;;;;;;;;;;;;;21.74;48.78;101880.66;10527905;28;19928;-65
2023/05/04 10:06:49;;;;;;;;;;;;;;;22.12;47.85;101867.53;10543637;28;20449;-65
2023/05/04 10:11:52;;;;;;;;;;;;;;;21.72;49.76;101869.28;10525907;28;19924;-66
2023/05/04 10:17:30;;;;;;;;;;;;;;;22.35;50.06;101861.00;10525895;28;19924;-66
2023/05/04 10:22:37;;;;;;;;;;;;;;;22.66;47.51;101863.53;10445286;28;19924;-72
2023/05/04 10:27:43;;;;;;;;;;;;;;;22.98;47.42;101849.00;10524258;28;19994;-72
2023/05/04 10:32:45;;;;;;;;;;;;;;;22.87;47.74;101842.00;10525116;28;19927;-71
2023/05/04 10:37:53;;;;;;;;;;;;;;;23.92;45.97;101827.56;10524356;28;19930;-73
2023/05/04 10:42:55;;;;;;;;;;;;;;;23.44;46.34;101811.78;10509630;28;19924;-73
2023/05/04 10:47:57;;;;;;;;;;;;;;;23.89;44.52;101800.31;10471017;28;19936;-72
2023/05/04 10:52:59;;;;;;;;;;;;;;;25.93;43.85;101793.69;10498517;28;19932;-72
2023/05/04 10:58:02;;;;;;;;;;;;;;;24.48;43.91;101784.59;10528362;28;19969;-72
2023/05/04 11:03:06;;;;;;;;;;;;;;;25.06;42.54;101766.25;10502593;28;19925;-72
2023/05/04 11:08:15;;;;;;;;;;;;;;;24.19;44.36;101764.31;10508206;28;19983;-72
2023/05/04 11:13:18;;;;;;;;;;;;;;;23.66;42.89;101749.88;10541388;28;19928;-72
2023/05/04 11:18:30;;;;;;;;;;;;;;;25.07;41.52;101741.16;10542388;28;20015;-72
2023/05/04 11:23:32;;;;;;;;;;;;;;;26.29;42.33;101729.00;10515601;28;19924;-72
2023/05/04 11:28:35;;;;;;;;;;;;;;;26.85;39.56;101713.81;10501116;28;19991;-72
2023/05/04 11:33:37;;;;;;;;;;;;;;;25.21;39.74;101694.97;10510707;28;19925;-66
2023/05/04 11:38:40;;;;;;;;;;;;;;;25.21;39.66;101701.16;10524768;28;19931;-66
2023/05/04 11:43:43;;;;;;;;;;;;;;;27.12;40.07;101681.25;10507166;28;19924;-67
2023/05/04 11:48:46;;;;;;;;;;;;;;;25.91;39.66;101688.41;10512809;28;20397;-67
2023/05/04 11:53:48;;;;;;;;;;;;;;;26.67;37.63;101671.03;10486001;28;19993;-67
2023/05/04 11:58:50;;;;;;;;;;;;;;;26.59;37.19;101673.72;10498886;28;19974;-66
2023/05/04 12:03:53;;;;;;;;;;;;;;;26.30;38.97;101675.16;10497772;28;20256;-66
2023/05/04 12:09:00;;;;;;;;;;;;;;;27.57;38.39;101661.69;10498160;28;19928;-66
2023/05/04 12:14:06;;;;;;;;;;;;;;;28.40;37.07;101667.19;10498748;28;19924;-67
2023/05/04 12:19:11;;;;;;;;;;;;;;;28.03;37.68;101670.78;10498114;28;19932;-67
2023/05/04 12:24:14;;;;;;;;;;;;;;;28.88;37.00;101647.94;10499066;28;19924;-67
2023/05/04 12:29:16;;;;;;;;;;;;;;;28.21;36.63;101648.88;10497436;28;20368;-67
2023/05/04 12:34:19;;;;;;;;;;;;;;;28.30;37.07;101645.91;10497493;28;19928;-70
2023/05/04 12:39:21;;;;;;;;;;;;;;;26.94;36.38;101633.16;10497091;28;19931;-72
2023/05/04 12:44:24;;;;;;;;;;;;;;;27.23;37.61;101633.34;10497369;28;20382;-72
2023/05/04 12:49:26;;;;;;;;;;;;;;;25.56;36.34;101621.50;10488096;28;20384;-72
2023/05/04 12:54:28;;;;;;;;;;;;;;;28.44;37.39;101609.22;10496747;28;20398;-72
2023/05/04 12:59:31;;;;;;;;;;;;;;;26.76;37.03;101602.00;10501610;28;20284;-71
2023/05/04 13:04:33;;;;;;;;;;;;;;;26.10;37.31;101593.34;10504218;28;20279;-71
2023/05/04 13:09:35;;;;;;;;;;;;;;;27.72;37.23;101596.34;10504447;28;20382;-71
2023/05/04 13:14:37;;;;;;;;;;;;;;;27.55;37.44;101585.72;10504859;28;19924;-71
2023/05/04 13:19:40;;;;;;;;;;;;;;;26.77;37.72;101567.94;10504130;28;19931;-72
2023/05/04 13:24:43;;;;;;;;;;;;;;;28.75;36.86;101557.03;10504482;28;19924;-72
2023/05/04 13:29:45;;;;;;;;;;;;;;;28.74;32.13;101551.84;10503468;28;19925;-72
2023/05/04 13:34:47;;;;;;;;;;;;;;;29.06;36.29;101542.41;10504052;28;20409;-71
2023/05/04 13:39:50;;;;;;;;;;;;;;;27.32;35.72;101544.56;10503930;28;19924;-72
2023/05/04 13:44:52;;;;;;;;;;;;;;;28.62;35.43;101538.03;10503807;28;19925;-72
2023/05/04 13:49:54;;;;;;;;;;;;;;;28.55;37.47;101521.75;10502969;28;19990;-72
2023/05/04 13:54:56;;;;;;;;;;;;;;;29.16;36.66;101504.34;10501926;28;19978;-72
2023/05/04 13:59:59;;;;;;;;;;;;;;;28.93;35.75;101499.16;10503137;28;19932;-71
2023/05/04 14:05:07;;;;;;;;;;;;;;;27.69;37.23;101492.66;10502379;28;20442;-72
2023/05/04 14:10:10;;;;;;;;;;;;;;;28.85;37.03;101475.84;10500206;28;19924;-71
2023/05/04 14:15:12;;;;;;;;;;;;;;;28.65;37.41;101476.50;10502599;28;19930;-71
2023/05/04 14:20:15;;;;;;;;;;;;;;;29.75;33.95;101452.72;10501652;28;20276;-71
2023/05/04 14:25:17;;;;;;;;;;;;;;;28.67;34.85;101457.47;10502165;28;19971;-71
2023/05/04 14:30:19;;;;;;;;;;;;;;;28.66;36.55;101453.09;10501204;28;19979;-70
2023/05/04 14:35:21;;;;;;;;;;;;;;;27.89;37.13;101430.19;10501667;28;19932;-71
2023/05/04 14:40:23;;;;;;;;;;;;;;;28.08;35.25;101421.56;10501317;28;19974;-71
2023/05/04 14:45:26;;;;;;;;;;;;;;;28.86;36.23;101420.94;10501258;28;19928;-71
2023/05/04 14:50:28;;;;;;;;;;;;;;;27.59;37.35;101416.78;10501056;28;19928;-71
2023/05/04 14:55:32;;;;;;;;;;;;;;;27.67;37.42;101422.06;10500222;28;19924;-71
2023/05/04 15:00:36;;;;;;;;;;;;;;;26.79;38.67;101415.50;10498789;28;19938;-70
2023/05/04 15:05:39;;;;;;;;;;;;;;;27.02;38.49;101408.25;10482790;28;19928;-71
2023/05/04 15:10:41;;;;;;;;;;;;;;;25.80;39.42;101409.81;10500146;28;19924;-70
2023/05/04 15:15:43;;;;;;;;;;;;;;;27.25;38.52;101402.81;10500108;28;19970;-70
2023/05/04 15:20:45;;;;;;;;;;;;;;;26.39;36.75;101398.63;10499115;28;20278;-70
2023/05/04 15:25:48;;;;;;;;;;;;;;;26.83;36.91;101400.69;10499126;28;19949;-72
2023/05/04 15:30:50;;;;;;;;;;;;;;;27.91;35.74;101396.72;10499806;28;19924;-70
2023/05/04 15:35:52;;;;;;;;;;;;;;;26.15;37.07;101395.09;10498511;28;19928;-69
2023/05/04 15:40:54;;;;;;;;;;;;;;;27.67;35.90;101384.41;10499415;28;19924;-70
2023/05/04 15:45:57;;;;;;;;;;;;;;;27.41;38.59;101395.63;10498559;28;19943;-70
2023/05/04 15:50:59;;;;;;;;;;;;;;;26.25;38.17;101400.22;10499078;28;19928;-70
2023/05/04 15:56:01;;;;;;;;;;;;;;;25.75;38.61;101384.34;10498203;28;19924;-69
2023/05/04 16:01:06;;;;;;;;;;;;;;;25.50;39.27;101382.75;10498210;28;20012;-69
2023/05/04 16:06:11;;;;;;;;;;;;;;;25.01;40.59;101381.81;10498081;28;20319;-69
2023/05/04 16:11:13;;;;;;;;;;;;;;;24.99;41.46;101359.72;10498721;28;19924;-68
2023/05/04 16:16:16;;;;;;;;;;;;;;;24.80;40.83;101352.06;10498623;28;19970;-70
2023/05/04 16:21:18;;;;;;;;;;;;;;;25.34;42.08;101354.16;10498485;28;19932;-69
2023/05/04 16:26:20;;;;;;;;;;;;;;;25.56;41.57;101345.38;10514426;28;20371;-69
2023/05/04 16:31:23;;;;;;;;;;;;;;;24.87;42.54;101345.00;10516526;28;19932;-69
2023/05/04 16:36:25;;;;;;;;;;;;;;;23.97;43.36;101347.56;10506067;28;19931;-68
2023/05/04 16:41:29;;;;;;;;;;;;;;;23.99;42.98;101337.53;10505708;28;19970;-68
2023/05/04 16:46:32;;;;;;;;;;;;;;;23.81;44.93;101345.66;10530516;28;19957;-68
2023/05/04 16:51:34;;;;;;;;;;;;;;;23.86;44.23;101346.88;10531243;28;20287;-69
2023/05/04 16:56:37;;;;;;;;;;;;;;;24.30;43.83;101343.13;10547021;28;19923;-69
2023/05/04 17:01:39;;;;;;;;;;;;;;;24.52;44.08;101348.84;10547542;28;19928;-70
2023/05/04 17:06:42;;;;;;;;;;;;;;;23.99;44.92;101338.38;10546361;28;19924;-70
2023/05/04 17:11:44;;;;;;;;;;;;;;;24.07;44.60;101322.38;10519494;28;19925;-69
2023/05/04 17:16:47;;;;;;;;;;;;;;;23.43;45.91;101321.09;10530658;28;19924;-70
2023/05/04 17:21:49;;;;;;;;;;;;;;;23.04;47.37;101316.19;10541318;28;20378;-69
2023/05/04 17:26:51;;;;;;;;;;;;;;;23.02;46.51;101323.53;10544802;28;19924;-69
2023/05/04 17:31:53;;;;;;;;;;;;;;;22.40;48.22;101333.19;10546350;28;19924;-69
2023/05/04 17:36:56;;;;;;;;;;;;;;;22.84;46.67;101327.06;10542168;28;19931;-64
2023/05/04 17:41:58;;;;;;;;;;;;;;;22.13;48.90;101349.25;10545726;28;19924;-64
2023/05/04 17:47:01;;;;;;;;;;;;;;;21.93;48.19;101343.19;10513271;28;19993;-64
2023/05/04 17:52:03;;;;;;;;;;;;;;;21.62;48.41;101347.00;10486255;28;19974;-65
2023/05/04 17:57:06;;;;;;;;;;;;;;;21.71;49.44;101351.41;10502829;28;19925;-65
2023/05/04 18:02:08;;;;;;;;;;;;;;;21.45;50.55;101345.91;10502462;28;20288;-65
2023/05/04 18:07:10;;;;;;;;;;;;;;;21.33;51.96;101344.38;10508694;28;20363;-65
2023/05/04 18:12:13;;;;;;;;;;;;;;;20.99;54.96;101346.72;10534103;28;19931;-65
2023/05/04 18:17:15;;;;;;;;;;;;;;;20.64;56.31;101342.84;10501941;28;19924;-65
2023/05/04 18:22:17;;;;;;;;;;;;;;;20.09;57.30;101345.97;10505214;28;20419;-65
2023/05/04 18:27:19;;;;;;;;;;;;;;;19.89;57.42;101345.06;10502138;28;19982;-65
2023/05/04 18:32:21;;;;;;;;;;;;;;;19.86;56.37;101348.84;10510913;28;20306;-65
2023/05/04 18:37:24;;;;;;;;;;;;;;;19.34;58.68;101359.50;10541780;28;20374;-65
2023/05/04 18:42:26;;;;;;;;;;;;;;;19.43;58.77;101372.00;10542685;28;20420;-65
2023/05/04 18:47:28;;;;;;;;;;;;;;;18.92;60.36;101367.50;10524767;28;20350;-65
2023/05/04 18:52:31;;;;;;;;;;;;;;;18.64;61.85;101371.56;10527558;28;19931;-65
2023/05/04 18:57:33;;;;;;;;;;;;;;;18.44;61.45;101381.16;10509409;28;19932;-65
2023/05/04 19:02:36;;;;;;;;;;;;;;;18.20;63.40;101379.50;10508444;28;20325;-65
2023/05/04 19:07:38;;;;;;;;;;;;;;;17.95;64.83;101383.28;10532674;28;20290;-65
2023/05/04 19:12:40;;;;;;;;;;;;;;;17.69;64.41;101380.03;10519196;28;19931;-65
2023/05/04 19:17:42;;;;;;;;;;;;;;;17.33;66.79;101366.88;10525727;28;20263;-65
2023/05/04 19:22:44;;;;;;;;;;;;;;;17.22;66.78;101367.69;10538461;28;19924;-65
2023/05/04 19:27:47;;;;;;;;;;;;;;;16.94;68.87;101376.88;10537882;28;19932;-65
2023/05/04 19:32:50;;;;;;;;;;;;;;;16.97;69.39;101375.81;10509363;28;19924;-65
2023/05/04 19:37:53;;;;;;;;;;;;;;;16.89;70.16;101379.03;10513836;28;19932;-65
2023/05/04 19:42:55;;;;;;;;;;;;;;;16.69;70.91;101378.69;10541212;28;19924;-65
2023/05/04 19:47:57;;;;;;;;;;;;;;;16.55;71.73;101380.66;10541055;28;19928;-65
2023/05/04 19:53:00;;;;;;;;;;;;;;;16.57;71.37;101373.47;10534412;28;19967;-65
2023/05/04 19:58:02;;;;;;;;;;;;;;;16.47;73.06;101386.50;10503533;28;19924;-65
2023/05/04 20:03:04;;;;;;;;;;;;;;;16.55;70.26;101372.72;10539670;28;19928;-65
2023/05/04 20:08:07;;;;;;;;;;;;;;;16.55;71.33;101372.72;10524238;28;19931;-65
2023/05/04 20:13:09;;;;;;;;;;;;;;;16.34;72.20;101373.34;10538260;28;19934;-65
2023/05/04 20:18:12;;;;;;;;;;;;;;;16.17;72.69;101369.25;10536511;28;19925;-65
2023/05/04 20:23:14;;;;;;;;;;;;;;;15.89;74.16;101367.78;10510780;28;19969;-65
2023/05/04 20:28:16;;;;;;;;;;;;;;;15.82;74.20;101364.72;10500119;28;19971;-65
2023/05/04 20:33:18;;;;;;;;;;;;;;;15.75;74.35;101364.31;10513456;28;19978;-65
2023/05/04 20:38:20;;;;;;;;;;;;;;;15.67;75.12;101356.03;10512699;28;19950;-65
2023/05/04 20:43:23;;;;;;;;;;;;;;;15.55;75.49;101349.84;10538634;28;20337;-65
2023/05/04 20:48:25;;;;;;;;;;;;;;;15.37;77.01;101345.81;10538039;28;19924;-65
2023/05/04 20:53:29;;;;;;;;;;;;;;;15.40;76.21;101340.34;10524351;28;19939;-65
2023/05/04 20:58:34;;;;;;;;;;;;;;;15.32;77.39;101335.59;10497875;28;19928;-65
2023/05/04 21:03:37;;;;;;;;;;;;;;;15.20;78.85;101331.16;10505441;28;19932;-65
2023/05/04 21:08:40;;;;;;;;;;;;;;;15.30;77.44;101320.78;10536208;28;19928;-65
2023/05/04 21:13:42;;;;;;;;;;;;;;;15.33;78.18;101310.91;10538720;28;20302;-65
2023/05/04 21:18:44;;;;;;;;;;;;;;;15.29;78.17;101306.78;10539887;28;20329;-65
2023/05/04 21:23:46;;;;;;;;;;;;;;;15.82;71.28;101306.63;10546290;28;19931;-65
2023/05/04 21:28:50;;;;;;;;;;;;;;;15.48;74.80;101306.31;10546323;28;19939;-65
2023/05/04 21:33:52;;;;;;;;;;;;;;;15.78;71.05;101303.38;10546262;28;19959;-65
2023/05/04 21:38:54;;;;;;;;;;;;;;;15.59;73.56;101295.03;10525174;28;19924;-65
2023/05/04 21:43:57;;;;;;;;;;;;;;;15.50;72.22;101295.66;10503940;28;20005;-65
2023/05/04 21:49:00;;;;;;;;;;;;;;;15.41;73.99;101289.25;10503781;28;19933;-65
2023/05/04 21:54:02;;;;;;;;;;;;;;;15.24;75.59;101287.78;10502543;28;20416;-65
2023/05/04 21:59:04;;;;;;;;;;;;;;;15.39;72.77;101291.16;10527270;28;19932;-65
2023/05/04 22:04:07;;;;;;;;;;;;;;;15.51;72.34;101282.38;10505821;28;19924;-65
2023/05/04 22:09:33;;;;;;;;;;;;;;;15.38;73.31;101274.50;10535681;22;19924;-65
2023/05/04 22:14:35;;;;;;;;;;;;;;;15.51;71.50;101277.09;10541844;28;20329;-65
2023/05/04 22:19:38;;;;;;;;;;;;;;;15.45;73.91;101282.81;10536115;28;19924;-65
2023/05/04 22:24:40;;;;;;;;;;;;;;;15.26;73.64;101283.25;10543475;28;20377;-65
2023/05/04 22:29:42;;;;;;;;;;;;;;;15.31;75.33;101283.75;10521433;28;19978;-65
2023/05/04 22:34:45;;;;;;;;;;;;;;;15.30;76.20;101270.69;10501260;28;20304;-65
2023/05/04 22:39:47;;;;;;;;;;;;;;;15.37;76.20;101285.97;10501726;28;19928;-65
2023/05/04 22:44:49;;;;;;;;;;;;;;;15.21;77.63;101273.03;10516824;28;19935;-65
2023/05/04 22:49:55;;;;;;;;;;;;;;;15.18;78.07;101286.44;10534472;28;19925;-65
2023/05/04 22:54:57;;;;;;;;;;;;;;;15.26;78.89;101285.03;10510090;28;19928;-65
2023/05/04 22:59:59;;;;;;;;;;;;;;;14.98;77.37;101274.59;10500636;28;19924;-65
2023/05/04 23:05:02;;;;;;;;;;;;;;;14.78;78.55;101273.31;10500550;28;19924;-65
2023/05/04 23:10:05;;;;;;;;;;;;;;;14.88;79.18;101272.69;10502161;28;19935;-65
2023/05/04 23:15:07;;;;;;;;;;;;;;;14.90;78.27;101276.91;10541514;28;19998;-65
2023/05/04 23:20:10;;;;;;;;;;;;;;;14.54;82.29;101273.16;10541908;28;19928;-65
2023/05/04 23:25:12;;;;;;;;;;;;;;;14.63;79.02;101280.47;10514861;28;19928;-65
2023/05/04 23:30:15;;;;;;;;;;;;;;;14.52;81.38;101268.91;10499453;28;19925;-65
2023/05/04 23:35:17;;;;;;;;;;;;;;;14.53;82.29;101279.38;10498913;28;20433;-65
2023/05/04 23:40:19;;;;;;;;;;;;;;;14.60;79.16;101279.81;10499452;28;19931;-65
2023/05/04 23:45:21;;;;;;;;;;;;;;;14.40;81.58;101284.59;10498755;28;19924;-65
2023/05/04 23:50:24;;;;;;;;;;;;;;;14.68;80.64;101288.06;10532480;28;20287;-65
2023/05/04 23:55:26;;;;;;;;;;;;;;;14.76;80.26;101277.88;10538188;28;19925;-65
